Time;durP1;ratioP1;P1;durP2;ratioP2;P2;SDS_P1;SDS_P2;PMS_P1;PMS_P2;Temp;Humidity;BMP_temperature;BMP_pressure;BME280_temperature;BME280_humidity;BME280_pressure;Samples;Min_cycle;Max_cycle;Signal;HPM_P1;HPM_P2
2022/11/02 01:10:26;;;;;;;45.00;22.93;;;;;;;9.49;100.00;95263.59;6036245;23;20179;-79
2022/11/02 01:19:38;;;;;;;40.73;23.20;;;;;;;10.27;99.39;95335.63;6189346;23;20537;-78
2022/11/02 01:22:05;;;;;;;41.77;23.63;;;;;;;10.34;99.26;95330.44;6196037;23;20171;-79
2022/11/02 01:24:32;;;;;;;47.17;23.17;;;;;;;10.35;98.24;95326.06;6170408;23;20183;-78
2022/11/02 01:26:59;;;;;;;44.43;22.77;;;;;;;10.39;98.01;95322.06;6170357;22;20185;-78
2022/11/02 01:29:26;;;;;;;44.87;23.83;;;;;;;10.47;97.92;95330.47;6169577;23;20181;-79
2022/11/02 01:31:53;;;;;;;47.13;23.13;;;;;;;10.46;97.88;95325.47;6171709;23;20171;-78
2022/11/02 01:34:20;;;;;;;48.93;20.77;;;;;;;10.46;97.58;95323.66;6168835;23;20194;-77
2022/11/02 01:36:57;;;;;;;34.07;19.53;;;;;;;10.46;97.40;95325.47;6167675;23;20235;-77
2022/11/02 01:39:24;;;;;;;38.60;20.70;;;;;;;10.45;97.18;95314.25;6181000;23;20533;-77
2022/11/02 01:41:52;;;;;;;37.87;19.50;;;;;;;10.46;96.90;95312.47;6200879;23;20182;-78
2022/11/02 01:44:30;;;;;;;42.17;21.27;;;;;;;10.03;98.09;95299.03;6199215;23;20194;-78
2022/11/02 01:47:03;;;;;;;37.73;19.63;;;;;;;9.82;97.99;95301.78;6199966;23;20176;-78
2022/11/02 01:49:33;;;;;;;38.83;20.47;;;;;;;9.55;100.00;95290.56;6199031;23;20182;-77
2022/11/02 01:52:07;;;;;;;50.50;20.27;;;;;;;9.64;100.00;95297.16;6200826;23;20159;-78
2022/11/02 01:54:42;;;;;;;44.17;20.37;;;;;;;9.72;100.00;95297.00;6199988;23;20629;-78
2022/11/02 01:57:12;;;;;;;34.37;19.13;;;;;;;9.83;100.00;95301.59;6199941;23;20165;-77
2022/11/02 01:59:48;;;;;;;35.97;20.07;;;;;;;9.82;100.00;95296.59;6198974;23;20617;-77
2022/11/02 02:02:20;;;;;;;42.33;19.07;;;;;;;9.94;99.55;95290.63;6199538;23;20170;-78
2022/11/02 02:04:51;;;;;;;42.47;18.57;;;;;;;10.01;99.38;95295.84;6198805;23;20880;-78
2022/11/02 02:07:23;;;;;;;45.00;19.40;;;;;;;10.11;98.33;95289.25;6198620;23;20512;-77
2022/11/02 02:09:51;;;;;;;33.10;17.07;;;;;;;10.13;98.98;95291.66;6200590;23;20162;-78
2022/11/02 02:12:19;;;;;;;36.33;17.60;;;;;;;10.17;98.60;95304.06;6199496;23;20220;-78
2022/11/02 02:14:47;;;;;;;35.60;16.90;;;;;;;10.21;98.07;95294.09;6201034;23;20661;-79
2022/11/02 02:17:28;;;;;;;32.43;16.03;;;;;;;10.23;97.71;95298.09;6202986;23;20174;-78
2022/11/02 02:20:02;;;;;;;36.93;15.97;;;;;;;10.14;97.36;95296.69;6203544;23;20165;-79
2022/11/02 02:22:47;;;;;;;28.77;15.23;;;;;;;10.13;97.52;95286.47;6202616;23;20159;-79
2022/11/02 02:25:40;;;;;;;27.47;15.03;;;;;;;10.07;98.00;95295.06;6200642;22;20231;-78
2022/11/02 02:28:19;;;;;;;27.57;15.17;;;;;;;10.05;97.79;95291.84;6202199;23;20154;-79
2022/11/02 02:30:51;;;;;;;29.53;15.83;;;;;;;9.57;99.76;95289.38;6202417;23;20181;-78
2022/11/02 02:33:26;;;;;;;30.10;16.63;;;;;;;9.24;100.00;95283.25;6202120;23;20162;-78
2022/11/02 02:35:59;;;;;;;35.37;17.33;;;;;;;9.15;100.00;95297.38;6203281;23;20166;-79
2022/11/02 02:38:31;;;;;;;29.43;16.83;;;;;;;9.26;100.00;95288.28;6203955;23;20170;-78
2022/11/02 02:41:03;;;;;;;32.20;16.50;;;;;;;9.31;100.00;95288.47;6202866;23;20157;-78
2022/11/02 02:43:36;;;;;;;35.73;17.07;;;;;;;9.42;100.00;95290.50;6201994;23;20162;-78
2022/11/02 02:46:08;;;;;;;36.50;17.60;;;;;;;9.49;100.00;95286.97;6202540;23;20169;-78
2022/11/02 02:48:38;;;;;;;32.73;19.03;;;;;;;9.50;100.00;95290.31;6202981;23;20174;-78
2022/11/02 02:51:10;;;;;;;41.07;20.10;;;;;;;9.58;100.00;95290.19;6204315;23;20170;-79
2022/11/02 02:53:41;;;;;;;42.10;20.77;;;;;;;9.36;100.00;95289.50;6200938;23;20167;-78
2022/11/02 02:56:11;;;;;;;36.43;19.77;;;;;;;9.25;100.00;95290.06;6199306;23;20193;-78
2022/11/02 02:58:45;;;;;;;37.17;21.23;;;;;;;9.01;100.00;95286.16;6200108;23;20269;-78
2022/11/02 03:01:14;;;;;;;47.37;21.67;;;;;;;9.02;100.00;95286.97;6202883;23;20571;-78
2022/11/02 03:03:42;;;;;;;38.77;20.00;;;;;;;9.10;100.00;95290.19;6204079;23;20873;-79
2022/11/02 03:06:17;;;;;;;34.27;19.40;;;;;;;9.27;100.00;95292.44;6203028;23;20227;-78
2022/11/02 03:08:52;;;;;;;35.83;19.80;;;;;;;9.34;100.00;95290.69;6204581;23;20162;-78
2022/11/02 03:11:22;;;;;;;39.57;20.33;;;;;;;9.50;100.00;95300.72;6204288;23;20226;-78
2022/11/02 03:14:06;;;;;;;36.63;21.87;;;;;;;9.58;100.00;95298.72;6203870;23;20285;-78
2022/11/02 03:16:50;;;;;;;38.70;20.47;;;;;;;9.59;100.00;95304.72;6204615;23;20178;-78
2022/11/02 03:19:24;;;;;;;35.10;20.43;;;;;;;9.64;100.00;95303.16;6203386;23;20158;-78
2022/11/02 03:21:58;;;;;;;41.50;20.57;;;;;;;9.70;100.00;95304.97;6202794;23;20155;-78
2022/11/02 03:24:29;;;;;;;40.53;20.20;;;;;;;9.72;99.84;95301.38;6201958;23;20189;-78
2022/11/02 03:27:07;;;;;;;35.63;19.13;;;;;;;9.76;100.00;95305.16;6202909;23;20195;-78
2022/11/02 03:29:44;;;;;;;40.27;19.87;;;;;;;9.61;100.00;95293.16;6204296;23;20165;-78
2022/11/02 03:32:17;;;;;;;38.53;18.67;;;;;;;9.64;100.00;95295.34;6203188;23;20212;-78
2022/11/02 03:34:48;;;;;;;35.40;17.60;;;;;;;9.72;99.96;95297.00;6201085;23;20604;-79
2022/11/02 03:37:20;;;;;;;31.17;18.10;;;;;;;9.77;99.81;95299.00;6202209;23;20171;-78
2022/11/02 03:39:50;;;;;;;35.07;17.57;;;;;;;9.79;99.11;95296.97;6201100;23;20219;-79
2022/11/02 03:42:21;;;;;;;30.60;16.20;;;;;;;9.77;99.69;95304.97;6202877;23;20154;-78
2022/11/02 03:44:55;;;;;;;34.67;17.00;;;;;;;9.76;99.15;95298.19;6204064;23;20190;-79
2022/11/02 03:47:23;;;;;;;33.77;16.37;;;;;;;9.74;99.44;95294.19;6204337;23;20158;-78
2022/11/02 03:49:52;;;;;;;36.33;16.70;;;;;;;9.75;99.36;95299.19;6204503;23;20173;-77
2022/11/02 03:52:22;;;;;;;32.20;17.13;;;;;;;9.68;98.90;95288.00;6203301;23;20178;-78
2022/11/02 03:54:58;;;;;;;29.37;15.63;;;;;;;9.38;100.00;95294.50;6206354;23;20162;-79
2022/11/02 03:57:29;;;;;;;29.00;16.23;;;;;;;8.92;100.00;95289.91;6206579;23;20597;-78
2022/11/02 04:00:08;;;;;;;35.77;18.00;;;;;;;8.33;100.00;95283.56;6206558;23;20178;-79
2022/11/02 04:02:37;;;;;;;34.20;16.90;;;;;;;8.29;100.00;95282.31;6204451;23;20158;-79
2022/11/02 04:05:06;;;;;;;37.33;16.83;;;;;;;8.14;100.00;95266.06;6203381;23;20556;-78
2022/11/02 04:10:16;;;;;;;32.03;17.03;;;;;;;8.15;100.00;95285.75;6200614;23;20644;-78
2022/11/02 04:15:28;;;;;;;37.40;19.47;;;;;;;8.03;100.00;95293.22;6201475;23;20161;-79
2022/11/02 04:20:40;;;;;;;38.20;22.13;;;;;;;8.35;100.00;95295.31;6201566;23;20166;-79
2022/11/02 04:25:53;;;;;;;58.17;22.53;;;;;;;8.63;100.00;95295.31;6200626;23;20205;-79
2022/11/02 04:28:20;;;;;;;44.40;24.30;;;;;;;8.76;100.00;95294.59;6203480;22;20926;-78
2022/11/02 04:30:48;;;;;;;46.00;24.03;;;;;;;8.84;100.00;95297.03;6203465;23;20170;-79
2022/11/02 04:33:34;;;;;;;44.83;23.63;;;;;;;8.93;100.00;95294.09;6203115;23;20182;-84
2022/11/02 04:36:01;;;;;;;46.77;23.17;;;;;;;9.02;100.00;95294.75;6208031;23;20161;-83
2022/11/02 04:38:40;;;;;;;45.40;22.43;;;;;;;9.08;100.00;95289.59;6206959;23;20182;-81
2022/11/02 04:43:51;;;;;;;55.57;22.60;;;;;;;9.19;100.00;95295.22;6206457;23;20242;-82
2022/11/02 04:46:20;;;;;;;45.53;22.63;;;;;;;9.20;100.00;95295.03;6206162;23;20197;-80
2022/11/02 04:48:47;;;;;;;49.73;23.07;;;;;;;9.16;100.00;95290.41;6205204;23;20167;-79
2022/11/02 04:51:15;;;;;;;44.37;22.77;;;;;;;9.26;100.00;95290.84;6205586;23;20166;-79
2022/11/02 04:53:42;;;;;;;41.20;23.03;;;;;;;9.23;100.00;95288.66;6204670;23;20238;-79
2022/11/02 04:56:09;;;;;;;49.90;23.30;;;;;;;9.24;100.00;95290.22;6205408;23;20505;-78
2022/11/02 04:58:36;;;;;;;50.60;25.40;;;;;;;8.90;100.00;95297.06;6205041;23;20178;-79
2022/11/02 05:01:06;;;;;;;46.90;25.70;;;;;;;8.62;100.00;95296.31;6206416;23;20493;-79
2022/11/02 05:03:35;;;;;;;54.20;26.67;;;;;;;8.38;100.00;95289.78;6204593;23;20223;-80
2022/11/02 05:06:02;;;;;;;52.87;29.07;;;;;;;8.42;100.00;95297.97;6204792;23;20190;-80
2022/11/02 05:08:29;;;;;;;65.33;29.70;;;;;;;8.59;100.00;95301.06;6205023;23;20239;-80
2022/11/02 05:10:59;;;;;;;59.87;32.10;;;;;;;8.68;100.00;95300.75;6205728;23;20639;-81
2022/11/02 05:13:27;;;;;;;60.57;31.63;;;;;;;8.71;100.00;95292.59;6206095;23;20211;-79
2022/11/02 05:15:56;;;;;;;60.60;33.13;;;;;;;8.86;100.00;95303.63;6204874;23;20178;-81
2022/11/02 05:18:23;;;;;;;66.03;34.93;;;;;;;8.92;100.00;95304.63;6206385;22;20231;-82
2022/11/02 05:20:52;;;;;;;67.40;32.87;;;;;;;8.98;100.00;95301.28;6206663;23;20174;-83
2022/11/02 05:23:19;;;;;;;60.83;34.37;;;;;;;9.01;100.00;95312.09;6207507;22;20231;-81
2022/11/02 05:25:53;;;;;;;73.43;36.30;;;;;;;9.02;100.00;95318.88;6206565;23;20194;-81
2022/11/02 05:28:21;;;;;;;72.03;36.07;;;;;;;9.09;100.00;95327.47;6206099;23;20755;-83
2022/11/02 05:30:48;;;;;;;81.07;38.23;;;;;;;9.08;100.00;95328.47;6205305;22;20516;-84
2022/11/02 05:33:16;;;;;;;82.40;42.43;;;;;;;9.16;100.00;95327.50;6203514;23;20166;-84
2022/11/02 05:35:43;;;;;;;84.60;43.53;;;;;;;9.11;100.00;95327.28;6207552;23;20652;-84
2022/11/02 05:38:12;;;;;;;80.13;46.37;;;;;;;9.17;100.00;95328.31;6206685;23;20171;-86
2022/11/02 05:40:39;;;;;;;89.37;47.53;;;;;;;9.07;100.00;95305.31;6206951;23;20191;-85
2022/11/02 05:43:08;;;;;;;92.90;46.27;;;;;;;9.23;100.00;95335.34;6206464;23;20257;-85
2022/11/02 05:45:34;;;;;;;81.37;43.53;;;;;;;9.26;100.00;95327.97;6208404;23;20194;-81
2022/11/02 05:48:01;;;;;;;87.70;42.37;;;;;;;9.26;100.00;95343.53;6207426;23;20166;-81
2022/11/02 05:50:30;;;;;;;78.77;42.00;;;;;;;8.85;100.00;95346.09;6207566;23;20167;-82
2022/11/02 05:52:58;;;;;;;90.80;45.27;;;;;;;8.23;100.00;95342.59;6208154;23;20174;-82
2022/11/02 05:55:26;;;;;;;90.67;46.17;;;;;;;7.89;100.00;95343.28;6206875;23;20166;-80
2022/11/02 05:57:54;;;;;;;97.57;46.50;;;;;;;8.07;100.00;95338.47;6207912;23;20276;-80
2022/11/02 06:00:23;;;;;;;89.57;45.93;;;;;;;8.29;100.00;95345.28;6206411;23;20185;-79
2022/11/02 06:02:57;;;;;;;86.40;45.03;;;;;;;8.46;100.00;95348.38;6206742;23;20235;-79
2022/11/02 06:05:24;;;;;;;85.87;43.10;;;;;;;8.54;100.00;95338.69;6205056;23;20323;-80
2022/11/02 06:07:50;;;;;;;76.57;40.27;;;;;;;8.66;100.00;95353.75;6207875;23;20170;-80
2022/11/02 06:10:18;;;;;;;73.27;37.43;;;;;;;8.51;100.00;95352.00;6207874;23;20174;-79
2022/11/02 06:12:46;;;;;;;72.73;38.87;;;;;;;8.46;100.00;95346.59;6206124;23;20173;-81
2022/11/02 06:15:13;;;;;;;70.93;34.37;;;;;;;8.69;100.00;95353.34;6205699;23;20223;-79
2022/11/02 06:17:41;;;;;;;63.40;33.77;;;;;;;8.85;100.00;95347.88;6206340;23;20174;-80
2022/11/02 06:20:09;;;;;;;65.50;36.87;;;;;;;8.96;100.00;95348.16;6206475;22;20223;-79
2022/11/02 06:22:40;;;;;;;71.73;38.23;;;;;;;9.18;100.00;95359.22;6205022;23;20171;-80
2022/11/02 06:25:08;;;;;;;71.03;36.83;;;;;;;9.34;100.00;95358.94;6206318;23;20233;-86
2022/11/02 06:27:35;;;;;;;69.53;34.80;;;;;;;9.52;100.00;95359.19;6207902;23;20170;-84
2022/11/02 06:30:04;;;;;;;67.17;34.40;;;;;;;9.59;100.00;95359.22;6209362;23;20525;-83
2022/11/02 06:32:31;;;;;;;60.33;31.83;;;;;;;9.68;100.00;95363.25;6209282;23;20633;-84
2022/11/02 06:34:58;;;;;;;60.60;31.80;;;;;;;9.80;100.00;95364.28;6207488;23;20185;-85
2022/11/02 06:37:25;;;;;;;64.67;30.93;;;;;;;9.91;100.00;95362.91;6208049;23;20205;-84
2022/11/02 06:39:53;;;;;;;55.73;29.63;;;;;;;10.02;100.00;95370.94;6207185;23;20221;-85
2022/11/02 06:42:20;;;;;;;53.93;28.70;;;;;;;10.10;100.00;95369.97;6209444;23;20196;-84
2022/11/02 06:44:46;;;;;;;66.27;29.70;;;;;;;10.13;100.00;95370.38;6207277;23;20177;-82
2022/11/02 06:47:15;;;;;;;49.83;27.00;;;;;;;10.21;100.00;95361.63;6207992;23;20177;-83
2022/11/02 06:49:42;;;;;;;52.20;26.13;;;;;;;10.33;100.00;95372.22;6205772;23;20630;-83
2022/11/02 06:52:09;;;;;;;55.67;26.67;;;;;;;10.40;100.00;95368.63;6205690;23;20171;-83
2022/11/02 06:54:36;;;;;;;58.63;25.97;;;;;;;10.51;100.00;95364.63;6205219;23;20524;-82
2022/11/02 06:57:03;;;;;;;53.63;24.17;;;;;;;10.55;100.00;95371.84;6207135;23;20166;-83
2022/11/02 06:59:30;;;;;;;49.03;22.77;;;;;;;10.65;99.44;95351.44;6206331;23;20171;-83
2022/11/02 07:01:57;;;;;;;45.03;23.10;;;;;;;10.51;99.58;95356.84;6206706;23;20188;-80
2022/11/02 07:04:25;;;;;;;56.10;23.53;;;;;;;10.36;99.99;95364.03;6206798;23;20227;-80
2022/11/02 07:06:51;;;;;;;50.87;23.03;;;;;;;10.34;100.00;95355.63;6206031;23;20220;-80
2022/11/02 07:09:18;;;;;;;48.97;22.93;;;;;;;10.38;100.00;95359.44;6204867;22;20174;-82
2022/11/02 07:11:45;;;;;;;55.97;23.30;;;;;;;10.55;100.00;95358.03;6207376;23;20170;-85
2022/11/02 07:14:12;;;;;;;50.40;22.50;;;;;;;10.71;100.00;95363.63;6209471;23;20166;-83
2022/11/02 07:16:39;;;;;;;43.57;22.10;;;;;;;10.88;100.00;95361.41;6206707;23;20166;-84
2022/11/02 07:19:06;;;;;;;51.33;21.63;;;;;;;11.08;99.01;95364.78;6206713;23;20170;-85
2022/11/02 07:21:34;;;;;;;35.20;21.20;;;;;;;11.21;97.64;95353.56;6208194;23;20249;-87
2022/11/02 07:24:01;;;;;;;45.60;19.70;;;;;;;11.40;97.08;95365.69;6207692;22;20170;-86
2022/11/02 07:26:27;;;;;;;42.10;19.40;;;;;;;11.50;96.60;95362.69;6207935;23;20201;-82
2022/11/02 07:28:54;;;;;;;46.40;20.33;;;;;;;11.51;96.29;95353.88;6205385;23;20170;-80
2022/11/02 07:31:21;;;;;;;46.87;20.50;;;;;;;11.64;96.24;95364.22;6205063;23;20190;-82
2022/11/02 07:33:48;;;;;;;41.97;19.87;;;;;;;11.72;95.74;95357.00;6205350;23;20178;-81
2022/11/02 07:36:15;;;;;;;45.00;19.23;;;;;;;11.85;94.54;95362.16;6209136;23;20166;-85
2022/11/02 07:38:44;;;;;;;35.70;19.43;;;;;;;11.89;94.10;95358.13;6207511;23;20237;-85
2022/11/02 07:41:11;;;;;;;41.50;19.10;;;;;;;11.70;93.22;95348.59;6208237;23;20159;-83
2022/11/02 07:43:38;;;;;;;32.93;16.93;;;;;;;11.65;92.53;95358.03;6207776;23;20173;-85
2022/11/02 07:46:05;;;;;;;41.27;18.60;;;;;;;11.56;95.33;95354.03;6207321;23;20190;-84
2022/11/02 07:48:32;;;;;;;42.80;17.07;;;;;;;11.67;94.59;95356.00;6208195;23;20166;-84
2022/11/02 07:50:59;;;;;;;33.37;17.70;;;;;;;11.76;93.88;95353.00;6206956;23;20641;-86
2022/11/02 07:53:26;;;;;;;34.93;18.00;;;;;;;11.87;92.93;95352.34;6207253;23;20181;-85
2022/11/02 07:55:54;;;;;;;39.87;17.80;;;;;;;11.99;92.91;95341.25;6209427;23;20181;-83
2022/11/02 07:58:21;;;;;;;44.83;19.10;;;;;;;12.07;91.95;95349.63;6208963;23;20162;-84
2022/11/02 08:00:48;;;;;;;38.57;19.20;;;;;;;12.07;91.56;95339.19;6207105;23;20174;-85
2022/11/02 08:03:15;;;;;;;40.90;20.33;;;;;;;11.96;93.42;95347.69;6206531;23;20662;-84
2022/11/02 08:05:42;;;;;;;41.47;19.83;;;;;;;12.14;92.92;95332.16;6205793;23;20665;-85
2022/11/02 08:08:13;;;;;;;41.07;20.67;;;;;;;12.33;91.50;95331.19;6206149;23;20181;-79
2022/11/02 08:10:40;;;;;;;36.20;19.90;;;;;;;12.62;90.02;95334.19;6204890;23;20158;-82
2022/11/02 08:13:09;;;;;;;44.10;21.60;;;;;;;12.75;89.54;95329.66;6205251;23;20173;-83
2022/11/02 08:15:36;;;;;;;47.73;20.10;;;;;;;12.91;89.22;95333.53;6206864;23;20163;-82
2022/11/02 08:18:08;;;;;;;38.80;19.93;;;;;;;13.04;88.68;95325.59;6207020;23;20193;-82
2022/11/02 08:20:36;;;;;;;41.90;20.47;;;;;;;13.18;88.12;95323.66;6209287;22;20232;-82
2022/11/02 08:23:03;;;;;;;36.83;20.70;;;;;;;13.34;86.72;95323.88;6206451;23;20562;-80
2022/11/02 08:25:30;;;;;;;38.70;20.63;;;;;;;13.40;86.53;95309.16;6206297;23;20194;-82
2022/11/02 08:27:58;;;;;;;48.20;20.70;;;;;;;13.66;85.31;95319.28;6206680;23;20166;-83
2022/11/02 08:30:26;;;;;;;44.33;21.90;;;;;;;13.77;84.45;95317.72;6208184;23;20182;-82
2022/11/02 08:32:54;;;;;;;41.07;20.73;;;;;;;13.83;84.11;95307.19;6206551;23;20993;-80
2022/11/02 08:35:21;;;;;;;49.43;22.17;;;;;;;13.99;83.20;95311.81;6206130;23;20468;-80
2022/11/02 08:37:54;;;;;;;49.03;22.13;;;;;;;14.13;83.75;95312.41;6206603;22;20166;-80
2022/11/02 08:40:22;;;;;;;42.60;22.40;;;;;;;13.97;82.96;95311.22;6205513;23;20225;-82
2022/11/02 08:42:49;;;;;;;40.10;22.20;;;;;;;13.88;82.66;95306.53;6207391;23;20163;-81
2022/11/02 08:45:16;;;;;;;49.50;24.00;;;;;;;13.83;83.76;95306.38;6206567;23;20174;-80
2022/11/02 08:47:45;;;;;;;44.30;24.57;;;;;;;13.95;84.07;95309.84;6205009;23;20192;-79
2022/11/02 08:50:11;;;;;;;49.50;24.53;;;;;;;14.14;83.47;95298.34;6205068;23;20197;-80
2022/11/02 08:52:39;;;;;;;56.27;23.30;;;;;;;14.34;83.35;95303.28;6200704;23;20649;-78
2022/11/02 08:55:06;;;;;;;48.60;23.40;;;;;;;14.53;81.80;95305.59;6205412;23;20171;-79
2022/11/02 08:57:33;;;;;;;47.87;23.20;;;;;;;14.76;81.22;95297.75;6204575;23;20461;-79
2022/11/02 09:00:00;;;;;;;54.83;23.60;;;;;;;15.29;79.67;95310.66;6204146;23;20174;-79
2022/11/02 09:02:27;;;;;;;54.70;23.57;;;;;;;16.06;77.27;95292.00;6204617;23;20170;-79
2022/11/02 09:04:55;;;;;;;45.13;23.33;;;;;;;16.57;73.86;95297.06;6205938;23;20181;-79
2022/11/02 09:07:22;;;;;;;50.10;23.23;;;;;;;16.95;72.31;95301.59;6203821;23;20197;-79
2022/11/02 09:09:49;;;;;;;55.53;23.90;;;;;;;17.54;71.35;95303.47;6204575;23;20500;-80
2022/11/02 09:12:15;;;;;;;44.30;22.80;;;;;;;18.51;68.41;95305.25;6204216;23;20842;-78
2022/11/02 09:14:42;;;;;;;59.37;23.83;;;;;;;19.27;65.20;95303.94;6205311;23;20170;-79
2022/11/02 09:17:09;;;;;;;49.87;24.00;;;;;;;20.01;62.42;95293.97;6204682;23;20166;-80
2022/11/02 09:19:36;;;;;;;53.55;22.67;;;;;;;20.77;59.80;95300.16;6203760;23;20657;-80
2022/11/02 09:22:04;;;;;;;53.90;23.45;;;;;;;21.56;57.15;95290.75;6203992;23;20177;-80
2022/11/02 09:24:31;;;;;;;41.35;21.20;;;;;;;22.23;54.67;95290.94;6204535;23;20166;-80
2022/11/02 09:26:58;;;;;;;44.08;21.23;;;;;;;22.85;52.52;95292.13;6205831;23;20198;-82
2022/11/02 09:29:25;;;;;;;40.83;21.23;;;;;;;23.30;50.83;95301.47;6202842;23;20506;-82
2022/11/02 09:31:51;;;;;;;43.80;20.63;;;;;;;23.78;49.69;95297.75;6204255;23;20487;-81
2022/11/02 09:34:18;;;;;;;47.33;20.40;;;;;;;24.54;47.79;95302.88;6206355;23;20181;-82
2022/11/02 09:36:45;;;;;;;47.85;21.67;;;;;;;24.78;47.77;95292.13;6206920;23;20200;-83
2022/11/02 09:39:14;;;;;;;42.40;21.67;;;;;;;24.63;46.58;95284.38;6205782;23;20190;-82
2022/11/02 09:41:47;;;;;;;48.20;21.92;;;;;;;23.87;48.73;95287.31;6204346;22;20167;-83
2022/11/02 09:44:21;;;;;;;52.13;21.10;;;;;;;24.72;47.62;95277.31;6204354;23;20155;-84
2022/11/02 09:46:48;;;;;;;47.90;20.85;;;;;;;25.66;45.12;95278.59;6204638;23;20284;-82
2022/11/02 09:49:17;;;;;;;41.55;19.75;;;;;;;26.43;43.51;95286.56;6206788;23;20510;-80
2022/11/02 09:51:48;;;;;;;51.65;20.60;;;;;;;27.18;39.48;95275.94;6204240;23;20177;-80
2022/11/02 09:54:22;;;;;;;51.45;21.05;;;;;;;27.95;38.16;95281.56;6203408;23;20210;-81
2022/11/02 09:56:50;;;;;;;44.88;20.13;;;;;;;28.55;36.35;95289.66;6204383;23;20675;-79
2022/11/02 09:59:19;;;;;;;45.50;20.45;;;;;;;29.16;35.00;95277.78;6206006;23;20171;-84
2022/11/02 10:02:00;;;;;;;38.95;20.02;;;;;;;29.59;34.81;95279.53;6207952;23;20170;-85
2022/11/02 10:05:07;;;;;;;42.15;17.92;;;;;;;29.60;32.97;95267.72;6205816;23;20166;-84
2022/11/02 10:07:56;;;;;;;40.58;18.02;;;;;;;29.99;32.42;95270.06;6206350;23;20178;-84
2022/11/02 10:10:32;;;;;;;38.10;17.33;;;;;;;29.76;31.80;95266.84;6206531;23;20575;-86
2022/11/02 10:13:08;;;;;;;47.85;17.88;;;;;;;29.97;31.82;95263.44;6206906;23;20159;-85
2022/11/02 10:15:39;;;;;;;41.88;17.83;;;;;;;30.53;30.34;95254.84;6206668;23;20158;-85
2022/11/02 10:18:13;;;;;;;44.08;18.77;;;;;;;30.61;30.92;95255.88;6206561;23;20154;-84
2022/11/02 10:20:45;;;;;;;45.35;17.10;;;;;;;30.89;30.54;95254.97;6208378;23;20158;-84
2022/11/02 10:23:20;;;;;;;38.88;15.65;;;;;;;30.93;29.78;95260.50;6206641;23;20161;-83
2022/11/02 10:25:49;;;;;;;36.45;15.27;;;;;;;31.08;29.83;95251.81;6205590;23;20219;-83
2022/11/02 10:28:21;;;;;;;45.22;14.98;;;;;;;31.56;29.43;95253.78;6206287;23;20167;-83
2022/11/02 10:30:47;;;;;;;32.20;14.98;;;;;;;31.77;28.34;95253.69;6206860;23;20158;-83
2022/11/02 10:33:18;;;;;;;34.47;14.35;;;;;;;31.86;28.97;95254.34;6208346;23;20678;-83
2022/11/02 10:35:55;;;;;;;37.47;14.25;;;;;;;31.92;28.77;95248.38;6207074;23;20211;-81
2022/11/02 10:38:34;;;;;;;35.78;13.02;;;;;;;32.26;28.17;95241.75;6206464;23;20636;-82
2022/11/02 10:41:29;;;;;;;32.70;12.77;;;;;;;32.72;27.68;95244.97;6204848;23;20166;-77
2022/11/02 10:44:12;;;;;;;34.47;12.27;;;;;;;32.91;27.56;95231.63;6205640;23;20174;-81
2022/11/02 10:46:49;;;;;;;33.63;10.65;;;;;;;33.17;27.11;95241.94;6207518;23;20189;-80
2022/11/02 10:49:28;;;;;;;36.05;10.20;;;;;;;33.36;26.26;95232.06;6205705;23;20155;-84
2022/11/02 10:51:55;;;;;;;25.98;8.45;;;;;;;33.56;25.34;95233.69;6205286;22;20180;-85
2022/11/02 10:54:22;;;;;;;25.27;8.60;;;;;;;33.62;25.41;95218.81;6206503;23;20178;-84
2022/11/02 10:56:50;;;;;;;22.95;8.70;;;;;;;33.22;24.35;95222.84;6205969;23;20189;-79
2022/11/02 10:59:19;;;;;;;28.27;7.57;;;;;;;32.40;26.26;95217.13;6205261;23;20683;-80
2022/11/02 11:01:47;;;;;;;22.73;7.30;;;;;;;32.66;25.98;95217.50;6205875;23;20170;-80
2022/11/02 11:04:25;;;;;;;24.35;6.90;;;;;;;32.95;24.77;95210.97;6204152;23;20520;-80
2022/11/02 11:06:55;;;;;;;24.38;6.82;;;;;;;33.15;24.40;95207.25;6204629;22;20230;-81
2022/11/02 11:09:25;;;;;;;17.52;6.78;;;;;;;33.27;24.01;95207.19;6204720;23;20174;-79
2022/11/02 11:11:59;;;;;;;15.68;5.97;;;;;;;33.20;24.05;95198.13;6206553;23;20166;-80
2022/11/02 11:14:28;;;;;;;16.58;5.93;;;;;;;33.26;23.48;95194.03;6204562;22;20170;-78
2022/11/02 11:16:56;;;;;;;16.60;5.30;;;;;;;33.51;22.63;95195.41;6203487;22;20170;-78
2022/11/02 11:19:29;;;;;;;17.75;5.53;;;;;;;33.69;22.79;95193.94;6204405;22;20900;-79
2022/11/02 11:21:56;;;;;;;14.88;5.15;;;;;;;33.20;22.30;95188.13;6204480;23;20501;-78
2022/11/02 11:24:29;;;;;;;19.75;5.32;;;;;;;32.68;21.52;95184.84;6205821;22;20175;-78
2022/11/02 11:27:19;;;;;;;19.65;4.65;;;;;;;31.33;22.50;95175.47;6204723;23;20178;-80
2022/11/02 11:29:49;;;;;;;16.17;4.95;;;;;;;30.93;23.73;95177.25;6204017;23;20165;-79
2022/11/02 11:32:18;;;;;;;19.45;4.65;;;;;;;31.11;23.34;95175.16;6203742;23;20227;-79
2022/11/02 11:34:54;;;;;;;18.48;4.78;;;;;;;30.41;23.46;95168.13;6203762;23;20174;-79
2022/11/02 11:37:21;;;;;;;14.27;4.82;;;;;;;30.46;23.17;95154.50;6204147;23;21023;-78
2022/11/02 11:39:53;;;;;;;17.20;4.85;;;;;;;30.08;23.80;95165.38;6205722;23;20194;-82
2022/11/02 11:42:24;;;;;;;19.02;4.50;;;;;;;30.40;24.23;95153.13;6204296;23;20163;-78
2022/11/02 11:45:01;;;;;;;20.75;5.10;;;;;;;31.19;22.83;95156.22;6203911;23;20166;-79
2022/11/02 11:47:32;;;;;;;10.65;4.20;;;;;;;32.10;22.38;95159.38;6205100;23;20182;-80
2022/11/02 11:50:02;;;;;;;12.68;4.30;;;;;;;32.41;21.52;95152.16;6205082;23;20163;-79
2022/11/02 11:52:32;;;;;;;21.77;4.30;;;;;;;32.70;21.16;95150.28;6205579;23;20167;-79
2022/11/02 11:55:00;;;;;;;19.50;4.50;;;;;;;32.80;21.14;95155.94;6204711;23;20622;-78
2022/11/02 11:57:31;;;;;;;12.52;3.60;;;;;;;32.63;21.28;95142.78;6204713;22;20162;-81
2022/11/02 12:00:00;;;;;;;12.95;3.97;;;;;;;32.69;21.39;95137.94;6205804;23;20256;-80
2022/11/02 12:02:29;;;;;;;16.73;4.30;;;;;;;32.54;21.34;95142.13;6208114;23;20781;-80
2022/11/02 12:05:13;;;;;;;18.80;4.55;;;;;;;32.13;21.47;95140.63;6204945;23;20171;-81
2022/11/02 12:08:13;;;;;;;12.07;4.75;;;;;;;32.46;22.04;95135.78;6204921;23;20633;-80
2022/11/02 12:10:58;;;;;;;13.70;4.60;;;;;;;33.11;21.81;95134.41;6203817;23;20158;-80
2022/11/02 12:13:52;;;;;;;14.82;4.40;;;;;;;33.08;21.71;95131.63;6203453;23;20490;-80
2022/11/02 12:16:28;;;;;;;14.05;4.57;;;;;;;33.42;21.33;95128.19;6202914;23;20258;-79
2022/11/02 12:19:12;;;;;;;18.67;4.40;;;;;;;33.74;20.50;95131.59;6202819;23;20270;-78
2022/11/02 12:21:51;;;;;;;14.48;5.10;;;;;;;33.59;20.85;95127.81;6204304;23;20162;-78
2022/11/02 12:24:33;;;;;;;15.77;4.88;;;;;;;33.14;21.26;95124.84;6205265;23;20213;-78
2022/11/02 12:27:15;;;;;;;15.85;5.35;;;;;;;33.32;21.39;95117.94;6202560;23;20185;-78
2022/11/02 12:30:01;;;;;;;9.52;4.22;;;;;;;33.33;20.74;95114.13;6202895;23;20177;-78
2022/11/02 12:32:58;;;;;;;18.98;5.00;;;;;;;33.92;21.37;95119.28;6202312;23;20827;-79
2022/11/02 12:35:44;;;;;;;13.35;4.53;;;;;;;33.93;20.67;95114.66;6200757;22;20170;-77
2022/11/02 12:38:38;;;;;;;14.32;4.63;;;;;;;33.89;20.48;95119.97;6203433;23;20158;-78
2022/11/02 12:41:09;;;;;;;16.60;4.80;;;;;;;34.20;20.62;95105.56;6203417;23;20166;-78
2022/11/02 12:43:42;;;;;;;19.73;5.60;;;;;;;34.66;20.06;95112.63;6205272;23;20170;-78
2022/11/02 12:46:32;;;;;;;13.43;4.35;;;;;;;34.75;20.12;95096.19;6204090;22;20162;-79
2022/11/02 12:49:13;;;;;;;16.33;4.55;;;;;;;33.92;20.75;95103.09;6203293;22;20241;-76
2022/11/02 12:51:47;;;;;;;15.43;5.63;;;;;;;34.38;19.98;95104.00;6204171;23;20166;-83
2022/11/02 12:54:20;;;;;;;17.40;5.00;;;;;;;34.80;20.21;95103.22;6204831;23;20154;-82
2022/11/02 12:56:49;;;;;;;12.68;5.50;;;;;;;35.09;20.15;95097.94;6208255;23;20161;-81
2022/11/02 12:59:21;;;;;;;16.80;4.88;;;;;;;35.34;19.44;95103.72;6208353;23;20162;-80
2022/11/02 13:01:54;;;;;;;16.75;4.45;;;;;;;35.65;19.05;95108.03;6206418;23;20163;-79
2022/11/02 13:04:25;;;;;;;16.08;4.22;;;;;;;35.94;18.71;95112.69;6207228;23;20169;-80
2022/11/02 13:06:58;;;;;;;19.73;4.68;;;;;;;35.85;18.92;95112.97;6205677;22;20214;-76